DAUH/HME METAR and TAF weather

Enter ICAO airport designator
Station Type Date Time Source
DAUH METAR 2019/10/23 07:00 UTC NOAA

DAUH 230700Z 13012KT 8000 NSC 27/10 Q1009


Station Type Date Time Source
DAUH Decoded METAR 2019/10/23 07:00 UTC NOAA

Hassi-Messaoud, Algeria (DAUH) 31-40N 006-09E 142M
Oct 23, 2019 - 03:00 AM EDT / 2019.10.23 0700 UTC
Wind: from the SE (130 degrees) at 14 MPH (12 KT):0
Visibility: 4 mile(s):0
Temperature: 80 F (27 C)
Dew Point: 50 F (10 C)
Relative Humidity: 34%
Pressure (altimeter): 29.80 in. Hg (1009 hPa)
ob: DAUH 230700Z 13012KT 8000 NSC 27/10 Q1009
cycle: 7

Station Type Date Time Source
DAUH TAF 2019/10/23 06:33 UTC NOAA

TAF DAUH 230500Z 2306/2406 14012KT 6000 FEW040 PROB30
TEMPO 2307/2311 4000 HZ
BECMG 2308/2311 23012KT PROB40
TEMPO 2311/2316 24015G30KT 4000 DRSA FEW046CB PROB30
TEMPO 2314/2317 24015G30KT 5000 -TSRA FEW040CB
BECMG 2318/2321 30008KT

Example: see airport list